Details From ENST - STOKKA
To ESPA - Lulea Kallax
Flight Number -
Tags generated
Created
Modified
Stats Distance 278 nm / 514 km
Max Altitude 31,200 ft / 9,510 m
Waypoints 4
Social Downloads 1
Likes 0
Share VATSIM

Download

Looking for another format? Having issues loading an existing format? Contact us
Advertisement - Login to hide

Notes

Basic altitude profile: - Ascent Rate: 2000ft/min - Ascent Speed: 230kts - Cruise Altitude: 2000ft - Cruise Speed: 350kts - Descent Rate: 2500ft/min - Descent Speed: 250kts Options: - Use NATs: yes - Use PACOTS: yes - Use low airways: yes - Use high airways: yes

Route

ENST PENAX T320 RISEM ESPA

ID Type Via Altitude Latitude Longitude Leg Dist Tot Dist Heading (true) Name
O ENST APT - 0 ft / 0 m 65.95684˚ 12.46897˚ - 0 nm - STOKKA
PENAX FIX - 31,200 ft / 9,510 m 66.63611˚ 15.67611˚ 87 nm 87 nm 61° / 64° -
RISEM FIX T320 (AWY-LO) 9,500 ft / 2,896 m 65.21906˚ 21.24211˚ 160 nm 248 nm 119° / 124° -
O ESPA APT - 0 ft / 0 m 65.54376˚ 22.12198˚ 29 nm 277 nm 48° / 49° Lulea Kallax

Altitude Profile

Advertisement - Login to hide

Weather


0- 5 10 15 20 25 30 35+ Temperature / ° C

Clouds and Precipitation
Forecast for 2018-05-23 18:00 UTC. Updated 14 minutes ago

Ground ~20,000 ft ~40,000 ft Winds

ENST

Details ICAO ENST (SSJ)
Name STOKKA
Region Norway
Timezone Europe/Oslo (UTC+2.0)
Stats Elevation 56 ft / 17 m (AMSL)
Location 65.956843° 12.468965°
Runways 1
Magnetic Variation 4.597° E

METAR

ENST 231720Z 03010KT CAVOK 10/02 Q1030 RMK WIND 300FT 05009KT

Decode

TAF

Not found

Departure Runways

ID Width Length Bearing (true) Bearing (mag) Surface Threshold Offset Overrun Length
03 98 ft / 30 m 3,551 ft / 1,082 m 24.76° 20.16° Asphalt 161 ft / 49 m 0 ft / 0 m
21 98 ft / 30 m 3,551 ft / 1,082 m 204.77° 200.17° Asphalt 177 ft / 54 m 0 ft / 0 m

ESPA

Details ICAO ESPA (LLA)
Name Lulea Kallax
Region Sweden
Timezone Europe/Stockholm (UTC+2.0)
Stats Elevation 65 ft / 20 m (AMSL)
Location 65.543757° 22.121979°
Runways 1
Magnetic Variation 9.409° E

METAR

ESPA 231720Z 20006KT CAVOK 13/M01 Q1027

Decode

TAF

Not found

Destination Runways

ID Width Length Bearing (true) Bearing (mag) Surface Threshold Offset Overrun Length
14 148 ft / 45 m 10,957 ft / 3,340 m 137.32° 127.91° Asphalt 0 ft / 0 m 0 ft / 0 m
32 148 ft / 45 m 10,957 ft / 3,340 m 317.36° 307.95° Asphalt 0 ft / 0 m 0 ft / 0 m

Approach Navaids

Runway Type Ident Frequency Range Bearing (true) Bearing (mag) Slope Elevation
14 Localiser PA 110.30 MHz 18 nm / 33 km 137.38° 127.97° - 65 ft / 20 m (AMSL)
14 Glidescope PA 110.30 MHz 10 nm / 19 km 137.34° 127.93° 2.86° 65 ft / 20 m (AMSL)
32 Localiser SPA 109.90 MHz 18 nm / 33 km 317.33° 307.92° - 65 ft / 20 m (AMSL)
32 Glidescope SPA 109.90 MHz 10 nm / 19 km 317.34° 307.93° 2.86° 65 ft / 20 m (AMSL)
32 DME SPA 109.90 MHz 18 nm / 33 km - - - 45 ft / 14 m (AMSL)